createdAt,value
2018-12-07T00:00:05.605Z,4.20
2018-12-07T00:02:33.136Z,4.30
2018-12-07T00:05:00.644Z,4.23
2018-12-07T00:07:28.089Z,5.30
2018-12-07T00:09:58.702Z,4.47
2018-12-07T00:12:26.159Z,3.90
2018-12-07T00:14:53.594Z,4.20
2018-12-07T00:17:21.133Z,4.33
2018-12-07T00:19:49.489Z,3.87
2018-12-07T00:22:16.969Z,4.97
2018-12-07T00:24:44.418Z,4.03
2018-12-07T00:27:11.900Z,4.47
2018-12-07T00:29:39.406Z,3.85
2018-12-07T00:32:06.937Z,3.80
2018-12-07T00:34:34.527Z,4.23
2018-12-07T00:37:02.262Z,4.32
2018-12-07T00:39:29.853Z,4.37
2018-12-07T00:41:57.936Z,3.70
2018-12-07T00:44:25.555Z,4.50
2018-12-07T00:46:53.026Z,4.73
2018-12-07T00:49:20.490Z,3.70
2018-12-07T00:51:48.141Z,3.20
2018-12-07T00:54:15.574Z,3.52
2018-12-07T00:56:46.848Z,4.50
2018-12-07T00:59:14.308Z,4.00
2018-12-07T01:01:41.931Z,3.83
2018-12-07T01:04:09.474Z,4.13
2018-12-07T01:06:36.981Z,4.03
2018-12-07T01:09:05.813Z,3.83
2018-12-07T01:11:33.259Z,3.83
2018-12-07T01:14:00.891Z,3.90
2018-12-07T01:16:28.323Z,3.10
2018-12-07T01:18:55.819Z,4.70
2018-12-07T01:21:23.381Z,3.87
2018-12-07T01:23:50.818Z,3.00
2018-12-07T01:26:21.437Z,3.72
2018-12-07T01:28:48.883Z,3.10
2018-12-07T01:31:16.344Z,4.07
2018-12-07T01:33:45.042Z,4.15
2018-12-07T01:36:12.517Z,3.37
2018-12-07T01:38:40.111Z,3.40
2018-12-07T01:41:07.786Z,3.50
2018-12-07T01:43:35.277Z,3.20
2018-12-07T01:46:02.740Z,3.60
2018-12-07T01:48:30.203Z,2.57
2018-12-07T01:50:58.562Z,3.07
2018-12-07T01:53:26.079Z,3.57
2018-12-07T01:55:53.561Z,3.00
2018-12-07T01:58:21.117Z,3.33
2018-12-07T02:00:48.773Z,2.85
2018-12-07T02:03:16.213Z,2.27
2018-12-07T02:05:43.761Z,2.63
2018-12-07T02:08:12.213Z,3.20
2018-12-07T02:10:39.689Z,3.00
2018-12-07T02:13:07.220Z,2.80
2018-12-07T02:15:34.893Z,2.65
2018-12-07T02:18:02.397Z,2.60
2018-12-07T02:20:29.863Z,2.80
2018-12-07T02:22:57.379Z,2.90
2018-12-07T02:25:25.376Z,2.37
2018-12-07T02:28:02.262Z,2.23
2018-12-07T02:30:30.342Z,2.30
2018-12-07T02:32:58.150Z,2.67
2018-12-07T02:35:26.793Z,2.77
2018-12-07T02:37:54.359Z,2.13
2018-12-07T02:40:21.826Z,2.03
2018-12-07T02:42:53.035Z,2.53
2018-12-07T02:45:21.423Z,2.50
2018-12-07T02:47:49.043Z,2.37
2018-12-07T02:50:16.616Z,2.10
2018-12-07T02:52:44.089Z,3.00
2018-12-07T02:55:11.637Z,2.20
2018-12-07T02:57:39.090Z,2.10
2018-12-07T03:00:07.414Z,2.08
2018-12-07T03:02:35.669Z,2.50
2018-12-07T03:05:03.158Z,2.43
2018-12-07T03:07:30.601Z,2.23
2018-12-07T03:09:58.158Z,2.00
2018-12-07T03:12:26.347Z,1.83
2018-12-07T03:14:54.540Z,1.87
2018-12-07T03:17:22.074Z,2.40
2018-12-07T03:19:49.823Z,2.00
2018-12-07T03:24:56.206Z,1.90
2018-12-07T03:27:23.657Z,1.87
2018-12-07T03:29:51.485Z,2.00
2018-12-07T03:32:18.920Z,2.23
2018-12-07T03:34:46.461Z,2.27
2018-12-07T03:37:14.809Z,2.50
2018-12-07T03:39:42.318Z,1.90
2018-12-07T03:42:09.789Z,2.33
2018-12-07T03:44:37.302Z,2.50
2018-12-07T03:47:04.798Z,1.57
2018-12-07T03:49:32.306Z,2.00
2018-12-07T03:51:59.750Z,1.93
2018-12-07T03:54:27.218Z,1.92
2018-12-07T03:56:54.926Z,1.80
2018-12-07T03:59:23.666Z,1.95
2018-12-07T04:01:51.137Z,1.60
2018-12-07T04:06:55.686Z,1.60
2018-12-07T04:09:24.243Z,1.60
2018-12-07T04:11:51.884Z,1.43
2018-12-07T04:14:19.362Z,1.72
2018-12-07T04:16:46.795Z,1.62
2018-12-07T04:19:14.329Z,1.53
2018-12-07T04:21:41.998Z,1.40
2018-12-07T04:24:09.749Z,1.70
2018-12-07T04:26:38.049Z,1.80
2018-12-07T04:29:07.527Z,1.97
2018-12-07T04:31:34.981Z,1.43
2018-12-07T04:34:02.612Z,1.62
2018-12-07T04:36:30.107Z,1.72
2018-12-07T04:38:57.554Z,2.00
2018-12-07T04:41:25.123Z,2.20
2018-12-07T04:43:52.689Z,1.67
2018-12-07T04:46:24.615Z,1.70
2018-12-07T04:48:52.146Z,1.90
2018-12-07T04:51:19.655Z,1.50
2018-12-07T04:53:47.135Z,1.40
2018-12-07T04:56:14.602Z,1.60
2018-12-07T04:58:42.060Z,1.47
2018-12-07T05:01:09.534Z,1.73
2018-12-07T05:03:37.010Z,1.47
2018-12-07T05:06:04.494Z,1.47
2018-12-07T05:08:32.085Z,2.20
2018-12-07T05:11:00.612Z,1.57
2018-12-07T05:13:28.219Z,2.03
2018-12-07T05:15:55.686Z,1.47
2018-12-07T05:18:23.396Z,1.47
2018-12-07T05:20:50.905Z,1.55
2018-12-07T05:23:19.398Z,1.47
2018-12-07T05:25:46.883Z,1.53
2018-12-07T05:28:14.439Z,1.90
2018-12-07T05:30:46.573Z,1.62
2018-12-07T05:33:14.636Z,2.45
2018-12-07T05:35:42.204Z,2.20
2018-12-07T05:38:10.040Z,1.63
2018-12-07T05:40:37.450Z,1.80
2018-12-07T05:43:04.949Z,2.07
2018-12-07T05:45:33.326Z,1.60
2018-12-07T05:48:00.864Z,2.30
2018-12-07T05:50:28.315Z,2.50
2018-12-07T05:52:55.763Z,1.80
2018-12-07T05:55:23.294Z,1.80
2018-12-07T05:57:50.810Z,1.62
2018-12-07T06:00:18.378Z,1.63
2018-12-07T06:02:46.017Z,1.87
2018-12-07T06:05:13.505Z,2.00
2018-12-07T06:07:41.723Z,1.90
2018-12-07T06:10:09.281Z,1.40
2018-12-07T06:12:36.746Z,1.90
2018-12-07T06:15:04.798Z,1.60
2018-12-07T06:17:32.315Z,1.90
2018-12-07T06:20:00.696Z,2.58
2018-12-07T06:22:28.261Z,1.42
2018-12-07T06:24:55.710Z,1.40
2018-12-07T06:27:23.180Z,1.80
2018-12-07T06:29:51.226Z,1.60
2018-12-07T06:32:18.832Z,2.33
2018-12-07T06:34:46.289Z,2.13
2018-12-07T06:37:14.972Z,1.77
2018-12-07T06:39:42.479Z,1.73
2018-12-07T06:42:09.991Z,1.50
2018-12-07T06:44:37.430Z,1.40
2018-12-07T06:47:08.174Z,1.87
2018-12-07T06:49:35.737Z,1.60
2018-12-07T06:52:04.390Z,1.40
2018-12-07T06:54:31.882Z,1.43
2018-12-07T06:56:59.354Z,1.57
2018-12-07T06:59:26.818Z,1.70
2018-12-07T07:01:57.740Z,1.60
2018-12-07T07:04:25.184Z,1.60
2018-12-07T07:06:53.881Z,1.70
2018-12-07T07:09:21.339Z,1.35
2018-12-07T07:11:48.792Z,2.37
2018-12-07T07:14:16.558Z,1.90
2018-12-07T07:16:44.017Z,1.60
2018-12-07T07:19:12.478Z,1.40
2018-12-07T07:21:40.173Z,1.60
2018-12-07T07:24:07.710Z,1.37
2018-12-07T07:26:35.179Z,2.00
2018-12-07T07:29:02.662Z,1.40
2018-12-07T07:31:30.398Z,1.87
2018-12-07T07:33:57.855Z,1.70
2018-12-07T07:36:25.342Z,1.57
2018-12-07T07:38:52.784Z,1.67
2018-12-07T07:41:21.193Z,1.73
2018-12-07T07:43:48.623Z,1.60
2018-12-07T07:46:16.132Z,1.90
2018-12-07T07:48:43.599Z,1.75
2018-12-07T07:51:11.076Z,1.90
2018-12-07T07:53:38.491Z,1.80
2018-12-07T07:56:06.090Z,1.65
2018-12-07T07:58:34.828Z,2.03
2018-12-07T08:01:02.296Z,1.63
2018-12-07T08:03:29.758Z,2.20
2018-12-07T08:05:57.246Z,2.27
2018-12-07T08:08:24.734Z,2.50
2018-12-07T08:10:52.193Z,4.83
2018-12-07T08:13:19.658Z,2.13
2018-12-07T08:15:50.740Z,2.17
2018-12-07T08:18:18.597Z,1.40
2018-12-07T08:20:46.110Z,2.10
2018-12-07T08:23:14.920Z,2.03
2018-12-07T08:25:42.969Z,2.27
2018-12-07T08:28:10.603Z,1.90
2018-12-07T08:30:38.118Z,2.97
2018-12-07T08:33:05.722Z,1.93
2018-12-07T08:35:33.190Z,2.10
2018-12-07T08:38:00.762Z,1.82
2018-12-07T08:40:28.329Z,2.40
2018-12-07T08:42:56.794Z,2.00
2018-12-07T08:45:24.280Z,2.10
2018-12-07T08:47:51.812Z,1.80
2018-12-07T08:50:19.243Z,1.60
2018-12-07T08:52:46.736Z,1.60
2018-12-07T08:55:14.295Z,2.37
2018-12-07T08:57:41.750Z,2.10
2018-12-07T09:00:09.310Z,2.33
2018-12-07T09:02:36.770Z,3.20
2018-12-07T09:05:05.059Z,2.00
2018-12-07T09:07:32.530Z,2.60
2018-12-07T09:10:00.080Z,2.03
2018-12-07T09:12:27.574Z,3.00
2018-12-07T09:14:55.029Z,3.80
2018-12-07T09:17:22.493Z,3.13
2018-12-07T09:19:49.942Z,3.17
2018-12-07T09:22:17.725Z,2.20
2018-12-07T09:24:45.174Z,2.80
2018-12-07T09:27:13.476Z,3.98
2018-12-07T09:29:41.051Z,4.17
2018-12-07T09:32:08.594Z,3.50
2018-12-07T09:34:40.442Z,3.77
2018-12-07T09:37:08.325Z,3.12
2018-12-07T09:39:35.781Z,3.47
2018-12-07T09:42:03.226Z,3.77
2018-12-07T09:44:30.885Z,3.53
2018-12-07T09:46:58.328Z,5.08
2018-12-07T09:49:26.092Z,4.37
2018-12-07T09:51:53.526Z,4.22
2018-12-07T09:54:21.787Z,3.50
2018-12-07T09:56:49.504Z,3.10
2018-12-07T09:59:16.999Z,4.23
2018-12-07T10:01:44.483Z,3.60
2018-12-07T10:04:11.939Z,3.72
2018-12-07T10:06:39.429Z,4.00
2018-12-07T10:09:07.676Z,8.03
2018-12-07T10:11:36.206Z,4.60
2018-12-07T10:14:03.736Z,4.40
2018-12-07T10:16:31.218Z,3.58
2018-12-07T10:18:58.666Z,3.93
2018-12-07T10:21:29.840Z,4.77
2018-12-07T10:23:57.979Z,3.63
2018-12-07T10:26:25.497Z,4.40
2018-12-07T10:28:52.996Z,4.10
2018-12-07T10:31:20.453Z,3.95
2018-12-07T10:33:47.911Z,3.53
2018-12-07T10:36:15.364Z,3.58
2018-12-07T10:38:42.863Z,4.50
2018-12-07T10:41:10.293Z,3.30
2018-12-07T10:43:38.683Z,6.23
2018-12-07T10:46:06.157Z,2.77
2018-12-07T10:48:33.851Z,3.10
2018-12-07T10:51:07.725Z,3.17
2018-12-07T10:53:31.143Z,2.90
2018-12-07T10:55:58.594Z,2.97
2018-12-07T10:58:26.176Z,5.28
2018-12-07T11:00:59.362Z,3.03
2018-12-07T11:03:32.527Z,3.73
2018-12-07T11:06:10.149Z,2.63
2018-12-07T11:08:43.338Z,3.05
2018-12-07T11:11:17.014Z,1.87
2018-12-07T11:13:50.159Z,2.03
2018-12-07T11:16:23.381Z,2.62
2018-12-07T11:18:56.606Z,2.00
2018-12-07T11:21:37.497Z,1.36
2018-12-07T11:24:10.669Z,1.97
2018-12-07T11:26:43.724Z,1.52
2018-12-07T11:29:14.039Z,1.57
2018-12-07T11:31:43.450Z,1.20
2018-12-07T11:34:13.106Z,1.60
2018-12-07T11:36:40.562Z,2.33
2018-12-07T11:39:08.629Z,1.45
2018-12-07T11:41:36.084Z,1.50
2018-12-07T11:44:03.600Z,1.40
2018-12-07T11:46:31.106Z,1.32
2018-12-07T11:48:58.582Z,0.90
2018-12-07T11:51:26.356Z,1.07
2018-12-07T11:53:53.818Z,1.20
2018-12-07T11:56:21.786Z,1.30
2018-12-07T11:58:49.299Z,1.33
2018-12-07T12:01:16.774Z,1.10
2018-12-07T12:03:44.241Z,1.40
2018-12-07T12:06:11.693Z,1.85
2018-12-07T12:08:42.866Z,1.03
2018-12-07T12:11:11.338Z,1.35
2018-12-07T12:13:38.779Z,1.02
2018-12-07T12:16:06.299Z,1.22
2018-12-07T12:18:34.190Z,0.80
2018-12-07T12:21:01.665Z,1.30
2018-12-07T12:23:29.158Z,1.10
2018-12-07T12:25:56.591Z,1.27
2018-12-07T12:28:24.087Z,1.47
2018-12-07T12:30:51.556Z,1.10
2018-12-07T12:33:20.026Z,1.23
2018-12-07T12:35:47.533Z,0.90
2018-12-07T12:38:18.325Z,0.73
2018-12-07T12:40:45.873Z,1.30
2018-12-07T12:43:13.343Z,1.30
2018-12-07T12:45:40.920Z,1.00
2018-12-07T12:48:09.520Z,1.00
2018-12-07T12:50:36.958Z,0.90
2018-12-07T12:53:07.504Z,0.87
2018-12-07T12:55:34.979Z,1.10
2018-12-07T12:58:02.438Z,1.10
2018-12-07T13:00:30.079Z,1.00
2018-12-07T13:02:57.547Z,1.57
2018-12-07T13:05:25.013Z,1.67
2018-12-07T13:07:53.215Z,1.55
2018-12-07T13:10:20.820Z,1.60
2018-12-07T13:12:48.300Z,1.00
2018-12-07T13:15:15.757Z,1.17
2018-12-07T13:17:43.209Z,1.10
2018-12-07T13:20:10.967Z,1.43
2018-12-07T13:22:38.798Z,1.00
2018-12-07T13:25:07.019Z,1.22
2018-12-07T13:27:34.698Z,1.10
2018-12-07T13:30:02.181Z,1.57
2018-12-07T13:32:29.622Z,1.20
2018-12-07T13:34:57.103Z,1.72
2018-12-07T13:37:24.561Z,1.50
2018-12-07T13:39:52.120Z,1.73
2018-12-07T13:42:19.909Z,1.30
2018-12-07T13:44:47.561Z,1.60
2018-12-07T13:47:15.299Z,1.50
2018-12-07T13:49:43.027Z,1.10
2018-12-07T13:52:11.125Z,1.70
2018-12-07T13:54:38.758Z,1.57
2018-12-07T13:57:06.657Z,1.10
2018-12-07T13:59:35.920Z,1.30
2018-12-07T14:02:03.795Z,1.50
2018-12-07T14:04:31.572Z,1.27
2018-12-07T14:06:59.703Z,1.42
2018-12-07T14:09:27.460Z,1.10
2018-12-07T14:11:55.104Z,1.02
2018-12-07T14:14:23.804Z,1.00
2018-12-07T14:16:51.579Z,1.07
2018-12-07T14:19:19.190Z,1.40
2018-12-07T14:21:46.732Z,1.50
2018-12-07T14:24:14.361Z,1.13
2018-12-07T14:26:41.850Z,1.80
2018-12-07T14:29:09.636Z,1.67
2018-12-07T14:31:37.789Z,1.00
2018-12-07T14:34:05.396Z,1.30
2018-12-07T14:36:32.884Z,1.30
2018-12-07T14:39:00.496Z,1.73
2018-12-07T14:41:28.197Z,1.50
2018-12-07T14:43:56.863Z,1.20
2018-12-07T14:46:24.568Z,1.30
2018-12-07T14:48:52.670Z,1.30
2018-12-07T14:51:21.302Z,2.22
2018-12-07T14:53:49.228Z,2.42
2018-12-07T14:56:16.810Z,2.62
2018-12-07T14:58:44.381Z,1.90
2018-12-07T15:01:12.457Z,1.93
2018-12-07T15:03:41.322Z,2.50
2018-12-07T15:06:09.296Z,2.20
2018-12-07T15:08:37.222Z,2.37
2018-12-07T15:11:05.341Z,2.62
2018-12-07T15:13:33.227Z,3.70
2018-12-07T15:16:00.985Z,3.10
2018-12-07T15:18:28.826Z,1.93
2018-12-07T15:20:57.010Z,2.85
2018-12-07T15:23:25.035Z,2.52
2018-12-07T15:25:56.259Z,1.85
2018-12-07T15:28:24.009Z,2.05
2018-12-07T15:30:51.451Z,1.90
2018-12-07T15:33:19.230Z,2.34
2018-12-07T15:35:47.209Z,2.93
2018-12-07T15:38:14.867Z,5.80
2018-12-07T15:40:46.400Z,1.97
2018-12-07T15:45:53.264Z,2.40
2018-12-07T15:48:21.958Z,2.80
2018-12-07T15:50:49.734Z,2.20
2018-12-07T15:53:17.675Z,2.67
2018-12-07T15:58:25.964Z,2.53
2018-12-07T16:00:53.692Z,2.65
2018-12-07T16:03:22.732Z,2.60
2018-12-07T16:05:51.187Z,2.87
2018-12-07T16:10:57.699Z,2.50
2018-12-07T16:13:25.561Z,2.35
2018-12-07T16:15:53.928Z,2.55
2018-12-07T16:21:01.057Z,3.43
2018-12-07T16:23:29.779Z,3.05
2018-12-07T16:25:57.925Z,2.50
2018-12-07T16:28:25.676Z,2.80
2018-12-07T16:30:53.387Z,2.30
2018-12-07T16:33:22.066Z,3.00
2018-12-07T16:35:50.967Z,3.40
2018-12-07T16:38:18.540Z,2.77
2018-12-07T16:43:25.195Z,2.00
2018-12-07T16:45:53.243Z,2.72
2018-12-07T16:48:21.955Z,2.42
2018-12-07T16:50:50.293Z,1.97
2018-12-07T16:53:18.173Z,2.67
2018-12-07T16:55:46.849Z,2.17
2018-12-07T16:58:14.813Z,2.13
2018-12-07T17:00:42.769Z,1.70
2018-12-07T17:05:56.436Z,2.40
2018-12-07T17:08:24.207Z,1.30
2018-12-07T17:10:51.915Z,2.10
2018-12-07T17:13:19.853Z,2.02
2018-12-07T17:15:47.753Z,2.20
2018-12-07T17:18:16.036Z,1.30
2018-12-07T17:20:43.697Z,1.90
2018-12-07T17:23:11.516Z,2.00
2018-12-07T17:25:39.367Z,2.80
2018-12-07T17:28:11.645Z,1.95
2018-12-07T17:30:39.315Z,2.10
2018-12-07T17:33:07.642Z,1.70
2018-12-07T17:35:35.436Z,1.80
2018-12-07T17:38:03.434Z,2.30
2018-12-07T17:40:32.340Z,1.90
2018-12-07T17:43:00.102Z,2.10
2018-12-07T17:45:27.691Z,1.95
2018-12-07T17:47:55.614Z,1.90
2018-12-07T17:50:23.429Z,1.90
2018-12-07T17:52:52.063Z,3.12
2018-12-07T17:55:19.920Z,2.27
2018-12-07T17:57:51.805Z,2.13
2018-12-07T18:00:19.343Z,2.40
2018-12-07T18:02:46.863Z,1.50
2018-12-07T18:05:14.768Z,2.30
2018-12-07T18:07:42.527Z,2.27
2018-12-07T18:10:10.054Z,2.33
2018-12-07T18:12:37.680Z,1.90
2018-12-07T18:15:06.792Z,1.62
2018-12-07T18:17:34.648Z,1.50
2018-12-07T18:20:02.471Z,1.30
2018-12-07T18:22:30.685Z,1.60
2018-12-07T18:24:58.370Z,2.67
2018-12-07T18:27:26.188Z,2.33
2018-12-07T18:29:53.695Z,2.12
2018-12-07T18:32:21.375Z,1.67
2018-12-07T18:34:49.670Z,1.95
2018-12-07T18:37:17.522Z,1.70
2018-12-07T18:39:45.261Z,1.80
2018-12-07T18:42:13.287Z,1.85
2018-12-07T18:44:41.009Z,1.30
2018-12-07T18:47:09.263Z,2.15
2018-12-07T18:49:36.994Z,1.70
2018-12-07T18:52:04.968Z,2.00
2018-12-07T18:54:32.561Z,2.30
2018-12-07T18:57:00.426Z,2.70
2018-12-07T18:59:28.567Z,2.02
2018-12-07T19:01:56.509Z,2.40
2018-12-07T19:04:24.230Z,2.70
2018-12-07T19:06:52.910Z,1.92
2018-12-07T19:09:20.896Z,3.07
2018-12-07T19:11:48.594Z,2.00
2018-12-07T19:14:16.226Z,2.17
2018-12-07T19:16:44.059Z,1.90
2018-12-07T19:19:12.868Z,2.24
2018-12-07T19:21:40.637Z,2.20
2018-12-07T19:24:08.438Z,2.10
2018-12-07T19:26:36.802Z,2.18
2018-12-07T19:29:04.458Z,2.20
2018-12-07T19:31:32.312Z,1.70
2018-12-07T19:34:00.170Z,3.25
2018-12-07T19:36:27.960Z,2.17
2018-12-07T19:38:56.842Z,2.76
2018-12-07T19:41:24.639Z,1.98
2018-12-07T19:43:52.432Z,2.07
2018-12-07T19:48:54.774Z,1.90
2018-12-07T19:51:22.516Z,1.62
2018-12-07T19:53:50.374Z,2.42
2018-12-07T19:56:18.076Z,2.15
2018-12-07T19:58:46.725Z,2.15
2018-12-07T20:01:14.612Z,2.10
2018-12-07T20:03:42.164Z,2.37
2018-12-07T20:06:10.678Z,2.37
2018-12-07T20:08:38.520Z,2.17
2018-12-07T20:11:06.154Z,1.57
2018-12-07T20:13:33.682Z,1.47
2018-12-07T20:16:01.490Z,1.70
2018-12-07T20:18:29.142Z,1.95
2018-12-07T20:20:56.741Z,1.50
2018-12-07T20:23:24.960Z,1.25
2018-12-07T20:25:52.532Z,1.60
2018-12-07T20:28:20.190Z,1.73
2018-12-07T20:30:47.815Z,2.27
2018-12-07T20:33:15.509Z,1.60
2018-12-07T20:35:43.745Z,2.27
2018-12-07T20:38:11.452Z,2.15
2018-12-07T20:40:39.365Z,1.30
2018-12-07T20:43:07.054Z,1.35
2018-12-07T20:45:46.806Z,1.30
2018-12-07T20:48:15.684Z,1.00
2018-12-07T20:50:43.499Z,1.40
2018-12-07T20:53:11.684Z,1.50
2018-12-07T20:55:40.085Z,1.67
2018-12-07T20:58:07.728Z,1.70
2018-12-07T21:00:46.278Z,1.72
2018-12-07T21:03:13.986Z,1.30
2018-12-07T21:08:58.782Z,0.95
2018-12-07T21:11:26.719Z,1.40
2018-12-07T21:14:07.007Z,1.20
2018-12-07T21:16:52.385Z,1.10
2018-12-07T21:19:20.238Z,1.10
2018-12-07T21:21:48.591Z,1.10
2018-12-07T21:24:16.230Z,1.20
2018-12-07T21:26:43.759Z,1.53
2018-12-07T21:29:12.033Z,1.13
2018-12-07T21:31:39.695Z,1.60
2018-12-07T21:34:23.625Z,1.20
2018-12-07T21:36:51.490Z,1.70
2018-12-07T21:39:22.177Z,1.10
2018-12-07T21:41:50.363Z,1.32
2018-12-07T21:44:18.235Z,1.20
2018-12-07T21:46:46.158Z,1.40
2018-12-07T21:49:14.062Z,0.90
2018-12-07T21:52:01.592Z,0.80
2018-12-07T21:54:29.530Z,1.02
2018-12-07T21:56:57.975Z,1.30
2018-12-07T21:59:25.963Z,1.10
2018-12-07T22:01:53.858Z,1.20
2018-12-07T22:04:21.412Z,1.00
2018-12-07T22:06:49.305Z,0.90
2018-12-07T22:09:17.729Z,1.00
2018-12-07T22:11:47.047Z,1.00
2018-12-07T22:14:14.954Z,1.00
2018-12-07T22:16:42.698Z,1.20
2018-12-07T22:19:10.344Z,1.37
2018-12-07T22:21:37.993Z,1.03
2018-12-07T22:24:05.755Z,0.70
2018-12-07T22:26:33.703Z,0.70
2018-12-07T22:29:01.617Z,1.20
2018-12-07T22:31:29.317Z,0.80
2018-12-07T22:33:56.973Z,0.65
2018-12-07T22:36:25.097Z,0.98
2018-12-07T22:38:52.780Z,1.20
2018-12-07T22:41:21.287Z,0.98
2018-12-07T22:43:49.094Z,1.00
2018-12-07T22:46:17.081Z,0.93
2018-12-07T22:48:46.142Z,1.20
2018-12-07T22:51:13.803Z,1.07
2018-12-07T22:53:41.273Z,0.93
2018-12-07T22:56:08.869Z,0.70
2018-12-07T22:58:36.431Z,0.90
2018-12-07T23:01:04.578Z,1.00
2018-12-07T23:03:32.021Z,1.00
2018-12-07T23:05:59.637Z,0.80
2018-12-07T23:08:27.478Z,0.90
2018-12-07T23:10:54.973Z,1.00
2018-12-07T23:13:25.695Z,1.20
2018-12-07T23:15:51.897Z,0.97
2018-12-07T23:18:19.342Z,1.10
2018-12-07T23:20:46.810Z,1.63
2018-12-07T23:23:14.245Z,1.03
2018-12-07T23:25:41.832Z,1.02
2018-12-07T23:28:09.943Z,2.17
2018-12-07T23:30:37.569Z,1.50
2018-12-07T23:33:08.694Z,0.80
2018-12-07T23:35:36.150Z,1.20
2018-12-07T23:38:03.822Z,0.82
2018-12-07T23:40:31.478Z,1.10
2018-12-07T23:43:00.890Z,1.10
2018-12-07T23:45:28.550Z,1.20
2018-12-07T23:47:56.586Z,1.17
2018-12-07T23:50:24.353Z,1.23
2018-12-07T23:52:52.118Z,1.10
2018-12-07T23:55:19.796Z,1.50
2018-12-07T23:57:47.497Z,1.42
